Sao Jose de Piranhas, Brazil
Current Conditions -  °F | °C
As of 11:00 PM on Sunday 25 Jan 2015 (Local Time) from SBJU Reporting Station
Few Clouds Few Clouds  
Wind Chill: 82°   Ceiling: Unl
Heat Index: 85°   Visibility: 6mi
Dew Point: 68°   Wind: 7mph
Humidity: 62%   Direction: 30°NNE
Pressure: 29.97"   Gusts: NA
Location:  7.12°S, 38.5°W
Report Text: SBJU 260200Z 03006KT 9999 FEW020 28/20 Q1015
Loading
Personal Weather Stations






























Interactive Weather Map New forecast layout! Learn more

10-Day Weather Forecast

Advertisements
Track Severe Weather on mobile